createdAt,value
2024-01-29T00:03:29.107Z,0.6
2024-01-29T00:09:26.383Z,0.6
2024-01-29T00:15:22.255Z,0.6
2024-01-29T00:21:17.266Z,0.6
2024-01-29T00:27:11.419Z,0.5
2024-01-29T00:32:51.176Z,0.5
2024-01-29T00:38:50.836Z,0.4
2024-01-29T00:44:45.283Z,0.4
2024-01-29T00:50:25.069Z,0.4
2024-01-29T00:56:26.992Z,0.4
2024-01-29T01:02:22.041Z,0.4
2024-01-29T01:08:23.424Z,0.4
2024-01-29T01:14:17.094Z,0.3
2024-01-29T01:19:57.548Z,0.3
2024-01-29T01:25:51.568Z,0.3
2024-01-29T01:31:46.341Z,0.3
2024-01-29T01:37:41.004Z,0.3
2024-01-29T01:43:37.890Z,0.3
2024-01-29T01:49:40.338Z,0.2
2024-01-29T01:55:34.704Z,0.1
2024-01-29T02:01:32.985Z,0.1
2024-01-29T02:07:28.504Z,0
2024-01-29T02:13:22.730Z,-0.1
2024-01-29T02:19:17.406Z,-0.1
2024-01-29T02:25:12.037Z,-0.1
2024-01-29T02:31:06.557Z,-0.2
2024-01-29T02:37:03.447Z,-0.2
2024-01-29T02:42:57.900Z,-0.3
2024-01-29T02:48:37.192Z,-0.4
2024-01-29T02:54:32.325Z,-0.4
2024-01-29T03:00:26.337Z,-0.4
2024-01-29T03:06:22.305Z,-0.4
2024-01-29T03:12:20.674Z,-0.4
2024-01-29T03:18:01.456Z,-0.4
2024-01-29T03:24:00.205Z,-0.5
2024-01-29T03:29:54.299Z,-0.5
2024-01-29T03:35:48.801Z,-0.6
2024-01-29T03:41:27.599Z,-0.6
2024-01-29T03:47:21.748Z,-0.6
2024-01-29T03:53:16.745Z,-0.7
2024-01-29T03:59:14.225Z,-0.8
2024-01-29T04:10:51.943Z,-1
2024-01-29T04:16:45.706Z,-1.1
2024-01-29T04:22:46.267Z,-1.1
2024-01-29T04:28:27.983Z,-1.2
2024-01-29T04:34:23.060Z,-1.2
2024-01-29T04:40:17.771Z,-1.2
2024-01-29T04:46:13.345Z,-1.2
2024-01-29T04:51:54.002Z,-1.2
2024-01-29T04:57:33.399Z,-1.1
2024-01-29T05:02:56.767Z,-1.1
2024-01-29T05:08:40.168Z,-1
2024-01-29T05:25:26.570Z,-0.9
2024-01-29T05:31:20.843Z,-0.8
2024-01-29T05:37:10.142Z,-0.7
2024-01-29T05:42:32.875Z,-0.6
2024-01-29T05:48:11.835Z,-0.5
2024-01-29T05:54:06.589Z,-0.4
2024-01-29T06:00:01.015Z,-0.3
2024-01-29T06:05:40.910Z,-0.3
2024-01-29T06:11:25.573Z,-0.3
2024-01-29T06:17:03.897Z,-0.1
2024-01-29T06:23:09.644Z,0
2024-01-29T06:28:51.563Z,0.1
2024-01-29T06:34:49.651Z,0.1
2024-01-29T06:40:43.712Z,0.3
2024-01-29T06:46:39.786Z,0.4
2024-01-29T06:52:35.792Z,0.4
2024-01-29T06:58:29.905Z,0.6
2024-01-29T07:04:26.133Z,0.7
2024-01-29T07:10:25.094Z,0.8
2024-01-29T07:16:19.491Z,1
2024-01-29T07:22:15.916Z,1.1
2024-01-29T07:27:55.303Z,1.3
2024-01-29T07:33:51.350Z,1.6
2024-01-29T07:39:46.598Z,1.9
2024-01-29T07:45:43.814Z,2.3
2024-01-29T07:51:38.599Z,2.8
2024-01-29T07:57:36.136Z,3.6
2024-01-29T08:03:32.388Z,4.4
2024-01-29T08:09:27.871Z,5.3
2024-01-29T08:15:22.805Z,5.9
2024-01-29T08:21:24.618Z,6.6
2024-01-29T08:27:19.077Z,7.1
2024-01-29T08:33:15.345Z,7.9
2024-01-29T08:39:11.252Z,8.7
2024-01-29T08:45:05.220Z,9.8
2024-01-29T08:51:03.020Z,11.6
2024-01-29T08:57:03.432Z,14.8
2024-01-29T09:02:58.586Z,18.6
2024-01-29T09:09:03.818Z,22.6
2024-01-29T09:15:00.194Z,23.2
2024-01-29T09:20:40.994Z,22.9
2024-01-29T09:26:36.475Z,22.4
2024-01-29T09:32:34.102Z,21.6
2024-01-29T09:38:40.041Z,20.6
2024-01-29T09:44:37.028Z,19.9
2024-01-29T09:50:03.828Z,19.6
2024-01-29T09:56:01.459Z,19.1
2024-01-29T10:01:58.054Z,18.8
2024-01-29T10:13:33.771Z,18.8
2024-01-29T10:19:28.121Z,18.9
2024-01-29T10:25:08.100Z,19.4
2024-01-29T10:30:49.067Z,20.4
2024-01-29T10:41:46.582Z,21.2
2024-01-29T10:47:25.224Z,20.6
2024-01-29T10:53:05.015Z,19.9
2024-01-29T10:58:45.893Z,19.6
2024-01-29T11:04:37.841Z,19.2
2024-01-29T11:10:17.790Z,19.1
2024-01-29T11:15:58.294Z,19
2024-01-29T11:21:55.419Z,19
2024-01-29T11:27:41.460Z,18.9
2024-01-29T11:33:40.067Z,19.3
2024-01-29T11:39:47.239Z,19.7
2024-01-29T11:45:44.252Z,20.5
2024-01-29T11:51:42.236Z,21.3
2024-01-29T11:57:34.863Z,22.4
2024-01-29T12:03:30.687Z,23.5
2024-01-29T12:09:14.472Z,25.3
2024-01-29T12:15:08.873Z,26.6
2024-01-29T12:21:06.068Z,27.1
2024-01-29T12:27:02.726Z,26.8
2024-01-29T12:32:57.715Z,26.3
2024-01-29T12:38:39.592Z,25.8
2024-01-29T12:44:36.776Z,25.1
2024-01-29T12:50:32.885Z,24.1
2024-01-29T12:56:11.822Z,22.8
2024-01-29T13:01:52.278Z,21.8
2024-01-29T13:07:54.117Z,20.4
2024-01-29T13:13:52.452Z,19
2024-01-29T13:19:47.903Z,17.6
2024-01-29T13:25:27.795Z,16.3
2024-01-29T13:31:23.888Z,15.1
2024-01-29T13:37:07.989Z,14
2024-01-29T13:43:05.121Z,13.1
2024-01-29T13:49:02.149Z,12.3
2024-01-29T13:54:57.239Z,11.5
2024-01-29T14:00:53.835Z,10.9
2024-01-29T14:06:50.703Z,10.3
2024-01-29T14:12:46.561Z,9.8
2024-01-29T14:18:57.797Z,9.3
2024-01-29T14:24:52.872Z,8.8
2024-01-29T14:30:47.808Z,8.3
2024-01-29T14:36:47.607Z,7.8
2024-01-29T14:42:45.678Z,7.4
2024-01-29T14:48:43.875Z,7
2024-01-29T14:54:39.845Z,6.6
2024-01-29T15:00:36.480Z,6.1
2024-01-29T15:06:33.428Z,5.8
2024-01-29T15:12:30.529Z,5.4
2024-01-29T15:18:27.570Z,5
2024-01-29T15:24:25.210Z,4.7
2024-01-29T15:30:21.095Z,4.4
2024-01-29T15:36:16.014Z,4.1
2024-01-29T15:42:12.537Z,3.8
2024-01-29T15:48:12.706Z,3.5
2024-01-29T15:54:10.802Z,3.3
2024-01-29T16:00:04.936Z,3
2024-01-29T16:05:59.880Z,2.8
2024-01-29T16:11:54.676Z,2.6
2024-01-29T16:17:52.547Z,2.4
2024-01-29T16:23:48.458Z,2.3
2024-01-29T16:29:43.118Z,2.1
2024-01-29T16:35:39.642Z,1.9
2024-01-29T16:41:38.264Z,1.8
2024-01-29T16:47:32.175Z,1.8
2024-01-29T16:53:28.542Z,1.6
2024-01-29T16:59:23.768Z,1.6
2024-01-29T17:05:21.039Z,1.5
2024-01-29T17:11:17.046Z,1.4
2024-01-29T17:17:15.759Z,1.4
2024-01-29T17:23:13.195Z,1.3
2024-01-29T17:29:07.157Z,1.3
2024-01-29T17:35:04.006Z,1.2
2024-01-29T17:40:58.732Z,1.1
2024-01-29T17:46:54.787Z,1.1
2024-01-29T17:52:50.610Z,1.1
2024-01-29T17:58:48.160Z,1.1
2024-01-29T18:04:43.421Z,1
2024-01-29T18:10:22.861Z,1
2024-01-29T18:16:04.033Z,0.9
2024-01-29T18:21:43.831Z,0.9
2024-01-29T18:27:25.350Z,0.9
2024-01-29T18:33:19.615Z,0.8
2024-01-29T18:39:14.622Z,0.8
2024-01-29T18:45:08.919Z,0.8
2024-01-29T18:51:07.434Z,0.7
2024-01-29T18:57:01.890Z,0.6
2024-01-29T19:03:00.261Z,0.6
2024-01-29T19:08:57.615Z,0.6
2024-01-29T19:14:57.207Z,0.5
2024-01-29T19:20:37.600Z,0.4
2024-01-29T19:26:16.061Z,0.4
2024-01-29T19:31:55.652Z,0.4
2024-01-29T19:37:51.984Z,0.4
2024-01-29T19:43:46.308Z,0.4
2024-01-29T19:49:42.916Z,0.4
2024-01-29T19:55:38.699Z,0.3
2024-01-29T20:01:33.834Z,0.3
2024-01-29T20:07:29.761Z,0.3
2024-01-29T20:13:25.947Z,0.3
2024-01-29T20:19:21.752Z,0.2
2024-01-29T20:25:16.749Z,0.1
2024-01-29T20:31:12.753Z,0.1
2024-01-29T20:37:09.177Z,0.1
2024-01-29T20:43:23.055Z,0
2024-01-29T20:49:03.779Z,-0.1
2024-01-29T20:55:03.713Z,-0.1
2024-01-29T21:01:05.549Z,-0.1
2024-01-29T21:07:02.455Z,-0.1
2024-01-29T21:12:44.612Z,-0.1
2024-01-29T21:18:39.216Z,-0.2
2024-01-29T21:24:34.425Z,-0.3
2024-01-29T21:30:28.504Z,-0.3
2024-01-29T21:36:26.119Z,-0.4
2024-01-29T21:42:04.472Z,-0.4
2024-01-29T21:47:58.778Z,-0.6
2024-01-29T21:53:54.402Z,-0.8
2024-01-29T21:59:49.044Z,-1
2024-01-29T22:05:31.159Z,-1.2
2024-01-29T22:11:10.747Z,-1.4
2024-01-29T22:17:05.204Z,-1.5
2024-01-29T22:22:45.567Z,-1.7
2024-01-29T22:28:43.291Z,-1.8
2024-01-29T22:34:37.531Z,-2
2024-01-29T22:40:16.762Z,-2.1
2024-01-29T22:46:11.161Z,-2.2
2024-01-29T22:51:50.509Z,-2.4
2024-01-29T22:57:46.898Z,-2.5
2024-01-29T23:03:28.416Z,-2.6
2024-01-29T23:09:23.561Z,-2.7
2024-01-29T23:15:17.541Z,-2.8
2024-01-29T23:20:56.727Z,-2.9
2024-01-29T23:26:54.133Z,-3
2024-01-29T23:32:48.471Z,-3.1
2024-01-29T23:38:43.237Z,-3.3
2024-01-29T23:44:36.872Z,-3.3
2024-01-29T23:50:15.687Z,-3.3
2024-01-29T23:55:54.770Z,-3.4
